createdAt,value
2019-03-18T00:00:45.301Z,0.00
2019-03-18T00:01:45.324Z,0.00
2019-03-18T00:03:47.349Z,0.00
2019-03-18T00:04:47.348Z,0.00
2019-03-18T00:06:49.347Z,0.00
2019-03-18T00:07:49.379Z,0.00
2019-03-18T00:09:51.369Z,0.00
2019-03-18T00:10:51.394Z,0.00
2019-03-18T00:12:53.674Z,0.00
2019-03-18T00:13:53.670Z,0.00
2019-03-18T00:15:55.668Z,0.00
2019-03-18T00:16:55.694Z,0.00
2019-03-18T00:18:57.713Z,0.00
2019-03-18T00:19:57.732Z,0.00
2019-03-18T00:21:59.733Z,0.00
2019-03-18T00:22:59.763Z,0.00
2019-03-18T00:25:01.759Z,0.00
2019-03-18T00:26:01.781Z,0.00
2019-03-18T00:27:53.726Z,0.00
2019-03-18T00:28:53.730Z,0.00
2019-03-18T00:30:55.733Z,0.00
2019-03-18T00:31:55.758Z,0.00
2019-03-18T00:33:57.755Z,0.00
2019-03-18T00:34:57.781Z,0.00
2019-03-18T00:36:59.942Z,0.00
2019-03-18T00:37:59.800Z,0.00
2019-03-18T00:40:01.803Z,0.00
2019-03-18T00:41:01.846Z,0.00
2019-03-18T00:43:03.826Z,0.00
2019-03-18T00:44:03.849Z,0.00
2019-03-18T00:46:05.846Z,0.00
2019-03-18T00:47:08.834Z,0.00
2019-03-18T00:49:07.875Z,0.00
2019-03-18T00:50:07.897Z,0.00
2019-03-18T00:52:09.898Z,0.00
2019-03-18T00:53:09.918Z,0.00
2019-03-18T00:55:11.940Z,0.00
2019-03-18T00:56:11.943Z,0.00
2019-03-18T00:58:04.010Z,0.00
2019-03-18T00:59:04.035Z,0.00
2019-03-18T01:01:06.036Z,0.00
2019-03-18T01:02:06.058Z,0.00
2019-03-18T01:04:08.057Z,0.00
2019-03-18T01:05:08.121Z,0.00
2019-03-18T01:07:10.125Z,0.00
2019-03-18T01:08:10.108Z,0.00
2019-03-18T01:09:10.133Z,0.00
2019-03-18T01:10:10.160Z,0.00
2019-03-18T01:11:10.240Z,0.00
2019-03-18T01:12:10.216Z,0.00
2019-03-18T01:13:10.243Z,0.00
2019-03-18T01:14:10.271Z,0.00
2019-03-18T01:15:10.325Z,0.00
2019-03-18T01:16:10.324Z,0.00
2019-03-18T01:17:10.355Z,0.00
2019-03-18T01:18:10.380Z,0.00
2019-03-18T01:19:10.408Z,0.00
2019-03-18T01:20:10.435Z,0.00
2019-03-18T01:21:10.552Z,0.00
2019-03-18T01:22:10.490Z,0.00
2019-03-18T01:23:10.518Z,0.00
2019-03-18T01:24:10.555Z,0.00
2019-03-18T01:25:10.572Z,0.00
2019-03-18T01:26:10.599Z,0.00
2019-03-18T01:27:10.627Z,0.00
2019-03-18T01:28:10.655Z,0.00
2019-03-18T01:29:10.751Z,0.00
2019-03-18T01:30:10.710Z,0.00
2019-03-18T01:31:10.768Z,0.00
2019-03-18T01:32:10.773Z,0.00
2019-03-18T01:33:10.793Z,0.00
2019-03-18T01:34:10.822Z,0.00
2019-03-18T01:35:10.870Z,0.00
2019-03-18T01:36:10.878Z,0.00
2019-03-18T01:37:10.903Z,0.00
2019-03-18T01:38:10.932Z,0.00
2019-03-18T01:39:10.968Z,0.00
2019-03-18T01:40:10.990Z,0.00
2019-03-18T01:41:11.011Z,0.00
2019-03-18T01:42:11.039Z,0.00
2019-03-18T01:43:11.070Z,0.00
2019-03-18T01:44:11.097Z,0.00
2019-03-18T01:45:11.185Z,0.00
2019-03-18T01:46:11.148Z,0.00
2019-03-18T01:47:11.176Z,0.00
2019-03-18T01:48:11.203Z,0.00
2019-03-18T01:49:11.231Z,0.00
2019-03-18T01:50:11.258Z,0.00
2019-03-18T01:51:11.286Z,0.00
2019-03-18T01:52:11.313Z,0.00
2019-03-18T01:53:11.342Z,0.00
2019-03-18T01:54:11.369Z,0.00
2019-03-18T01:55:11.395Z,0.00
2019-03-18T01:56:11.423Z,0.00
2019-03-18T01:57:11.450Z,0.00
2019-03-18T01:58:11.477Z,0.00
2019-03-18T01:59:11.507Z,0.00
2019-03-18T02:00:11.533Z,0.00
2019-03-18T02:01:11.560Z,0.00
2019-03-18T02:02:11.586Z,0.00
2019-03-18T02:03:11.686Z,0.00
2019-03-18T02:04:11.642Z,0.00
2019-03-18T02:05:11.673Z,0.00
2019-03-18T02:06:11.779Z,0.00
2019-03-18T02:07:11.725Z,0.00
2019-03-18T02:08:11.753Z,0.00
2019-03-18T02:09:11.779Z,0.00
2019-03-18T02:10:11.808Z,0.00
2019-03-18T02:11:11.834Z,0.00
2019-03-18T02:12:11.862Z,0.00
2019-03-18T02:13:11.889Z,0.00
2019-03-18T02:14:11.916Z,0.00
2019-03-18T02:15:11.947Z,0.00
2019-03-18T02:16:11.973Z,0.00
2019-03-18T02:17:11.997Z,0.00
2019-03-18T02:18:12.033Z,0.00
2019-03-18T02:19:12.053Z,0.00
2019-03-18T02:20:12.230Z,0.00
2019-03-18T02:21:12.106Z,0.00
2019-03-18T02:22:12.133Z,0.00
2019-03-18T02:23:12.165Z,0.00
2019-03-18T02:24:12.190Z,0.00
2019-03-18T02:25:12.221Z,0.00
2019-03-18T02:26:12.242Z,0.00
2019-03-18T02:27:12.269Z,0.00
2019-03-18T02:28:12.301Z,0.00
2019-03-18T02:29:12.323Z,0.00
2019-03-18T02:30:12.362Z,0.00
2019-03-18T02:31:12.380Z,0.00
2019-03-18T02:32:12.411Z,0.00
2019-03-18T02:33:12.435Z,0.00
2019-03-18T02:34:12.459Z,0.00
2019-03-18T02:35:12.514Z,0.00
2019-03-18T02:36:12.525Z,0.00
2019-03-18T02:37:12.548Z,0.00
2019-03-18T02:38:12.572Z,0.00
2019-03-18T02:39:12.594Z,0.00
2019-03-18T02:40:12.634Z,0.00
2019-03-18T02:41:12.649Z,0.00
2019-03-18T02:42:12.676Z,0.00
2019-03-18T02:43:12.709Z,0.00
2019-03-18T02:44:12.764Z,0.00
2019-03-18T02:45:12.822Z,0.00
2019-03-18T02:46:12.784Z,0.00
2019-03-18T02:47:12.835Z,0.00
2019-03-18T02:48:12.841Z,0.00
2019-03-18T02:49:12.868Z,0.00
2019-03-18T02:50:12.898Z,0.00
2019-03-18T02:51:12.922Z,0.00
2019-03-18T02:52:12.947Z,0.00
2019-03-18T02:53:12.973Z,0.00
2019-03-18T02:54:13.002Z,0.00
2019-03-18T02:55:13.029Z,0.00
2019-03-18T02:56:13.056Z,0.00
2019-03-18T02:57:13.083Z,0.00
2019-03-18T02:58:13.109Z,0.00
2019-03-18T02:59:13.136Z,0.00
2019-03-18T03:00:13.200Z,0.00
2019-03-18T03:01:13.191Z,0.00
2019-03-18T03:02:13.218Z,0.00
2019-03-18T03:03:13.245Z,0.00
2019-03-18T03:04:13.272Z,0.00
2019-03-18T03:05:13.298Z,0.00
2019-03-18T03:06:13.326Z,0.00
2019-03-18T03:07:13.351Z,0.00
2019-03-18T03:08:13.386Z,0.00
2019-03-18T03:09:13.406Z,0.00
2019-03-18T03:10:13.433Z,0.00
2019-03-18T03:11:13.461Z,0.00
2019-03-18T03:12:13.487Z,0.00
2019-03-18T03:13:13.513Z,0.00
2019-03-18T03:14:13.541Z,0.00
2019-03-18T03:15:13.568Z,0.00
2019-03-18T03:16:25.500Z,0.00
2019-03-18T03:17:13.621Z,0.00
2019-03-18T03:18:13.651Z,0.00
2019-03-18T03:19:13.699Z,0.00
2019-03-18T03:20:13.760Z,0.00
2019-03-18T03:21:13.729Z,0.00
2019-03-18T03:22:13.758Z,0.00
2019-03-18T03:23:13.784Z,0.00
2019-03-18T03:24:13.812Z,0.00
2019-03-18T03:25:13.838Z,0.00
2019-03-18T03:26:13.864Z,0.00
2019-03-18T03:27:14.010Z,0.00
2019-03-18T03:28:13.920Z,0.00
2019-03-18T03:29:13.945Z,0.00
2019-03-18T03:30:14.026Z,0.00
2019-03-18T03:31:13.999Z,0.00
2019-03-18T03:32:14.052Z,0.00
2019-03-18T03:33:14.063Z,0.00
2019-03-18T03:34:14.553Z,0.00
2019-03-18T03:35:14.394Z,0.00
2019-03-18T03:36:14.141Z,0.00
2019-03-18T03:37:14.173Z,0.00
2019-03-18T03:38:14.187Z,0.00
2019-03-18T03:39:14.214Z,0.00
2019-03-18T03:40:14.313Z,0.00
2019-03-18T03:41:17.664Z,0.00
2019-03-18T03:42:14.297Z,0.00
2019-03-18T03:43:14.323Z,0.00
2019-03-18T03:44:14.404Z,0.00
2019-03-18T03:45:14.474Z,0.00
2019-03-18T03:46:14.626Z,0.00
2019-03-18T03:47:14.430Z,0.00
2019-03-18T03:48:14.460Z,0.00
2019-03-18T03:49:14.488Z,0.00
2019-03-18T03:50:14.510Z,0.00
2019-03-18T03:51:14.537Z,0.00
2019-03-18T03:52:14.563Z,0.00
2019-03-18T03:53:14.589Z,0.00
2019-03-18T03:54:14.619Z,0.00
2019-03-18T03:55:14.662Z,0.00
2019-03-18T03:56:14.675Z,0.00
2019-03-18T03:57:14.698Z,0.00
2019-03-18T03:58:14.758Z,0.00
2019-03-18T03:59:14.755Z,0.00
2019-03-18T04:00:14.779Z,0.00
2019-03-18T04:01:14.803Z,0.00
2019-03-18T04:02:14.831Z,0.00
2019-03-18T04:03:14.859Z,0.00
2019-03-18T04:04:14.911Z,0.00
2019-03-18T04:05:14.920Z,0.00
2019-03-18T04:06:14.942Z,0.00
2019-03-18T04:07:14.967Z,0.00
2019-03-18T04:08:14.996Z,0.00
2019-03-18T04:09:15.043Z,0.00
2019-03-18T04:10:15.104Z,0.00
2019-03-18T04:11:15.076Z,0.00
2019-03-18T04:12:15.101Z,0.00
2019-03-18T04:13:15.126Z,0.00
2019-03-18T04:14:15.158Z,0.00
2019-03-18T04:15:15.179Z,0.00
2019-03-18T04:16:15.206Z,0.00
2019-03-18T04:17:15.242Z,0.00
2019-03-18T04:18:15.261Z,0.00
2019-03-18T04:19:15.307Z,0.00
2019-03-18T04:20:15.314Z,0.00
2019-03-18T04:21:15.339Z,0.00
2019-03-18T04:22:15.366Z,0.00
2019-03-18T04:23:15.394Z,0.00
2019-03-18T04:24:15.426Z,0.00
2019-03-18T04:25:15.452Z,0.00
2019-03-18T04:26:15.473Z,0.00
2019-03-18T04:27:15.508Z,0.00
2019-03-18T04:28:15.530Z,0.00
2019-03-18T04:29:15.556Z,0.00
2019-03-18T04:30:15.599Z,0.00
2019-03-18T04:31:15.612Z,0.00
2019-03-18T04:32:15.640Z,0.00
2019-03-18T04:33:15.795Z,0.00
2019-03-18T04:34:15.687Z,0.00
2019-03-18T04:35:15.736Z,0.00
2019-03-18T04:36:15.743Z,0.00
2019-03-18T04:37:15.886Z,0.00
2019-03-18T04:38:15.886Z,0.00
2019-03-18T04:39:15.959Z,0.00
2019-03-18T04:40:15.855Z,0.00
2019-03-18T04:41:15.874Z,0.00
2019-03-18T04:42:15.901Z,0.00
2019-03-18T04:43:15.943Z,0.00
2019-03-18T04:44:15.958Z,0.00
2019-03-18T04:45:15.994Z,0.00
2019-03-18T04:46:16.055Z,0.00
2019-03-18T04:47:16.045Z,0.00
2019-03-18T04:48:16.063Z,0.00
2019-03-18T04:49:16.141Z,0.00
2019-03-18T04:50:16.116Z,0.00
2019-03-18T04:51:16.290Z,0.00
2019-03-18T04:52:16.171Z,0.00
2019-03-18T04:53:16.197Z,0.00
2019-03-18T04:54:16.248Z,0.00
2019-03-18T04:55:16.251Z,0.00
2019-03-18T04:56:16.277Z,0.00
2019-03-18T04:57:16.304Z,0.00
2019-03-18T04:58:16.329Z,0.00
2019-03-18T04:59:16.366Z,0.00
2019-03-18T05:00:16.390Z,0.00
2019-03-18T05:01:16.411Z,0.00
2019-03-18T05:02:16.880Z,0.00
2019-03-18T05:03:16.464Z,0.00
2019-03-18T05:04:16.492Z,0.00
2019-03-18T05:05:16.519Z,0.00
2019-03-18T05:06:16.641Z,0.00
2019-03-18T05:07:16.575Z,0.00
2019-03-18T05:08:16.599Z,0.00
2019-03-18T05:09:16.626Z,0.00
2019-03-18T05:10:16.652Z,0.00
2019-03-18T05:11:16.679Z,0.00
2019-03-18T05:12:16.706Z,0.00
2019-03-18T05:13:16.732Z,0.00
2019-03-18T05:14:16.830Z,0.00
2019-03-18T05:15:16.807Z,0.00
2019-03-18T05:16:16.815Z,0.00
2019-03-18T05:17:26.225Z,0.00
2019-03-18T05:18:16.869Z,0.00
2019-03-18T05:19:16.896Z,0.00
2019-03-18T05:20:16.925Z,0.00
2019-03-18T05:21:16.949Z,0.00
2019-03-18T05:22:16.975Z,0.00
2019-03-18T05:23:17.019Z,0.00
2019-03-18T05:24:17.029Z,0.00
2019-03-18T05:25:17.056Z,0.00
2019-03-18T05:26:17.084Z,0.00
2019-03-18T05:27:17.110Z,0.00
2019-03-18T05:28:17.138Z,0.00
2019-03-18T05:29:17.166Z,0.00
2019-03-18T05:30:17.193Z,0.00
2019-03-18T05:31:17.226Z,0.00
2019-03-18T05:32:17.339Z,0.00
2019-03-18T05:33:17.276Z,0.00
2019-03-18T05:34:17.301Z,0.00
2019-03-18T05:35:17.327Z,0.00
2019-03-18T05:36:17.357Z,0.00
2019-03-18T05:37:17.381Z,0.00
2019-03-18T05:38:17.406Z,0.00
2019-03-18T05:39:17.433Z,0.00
2019-03-18T05:40:17.464Z,0.00
2019-03-18T05:41:17.487Z,0.00
2019-03-18T05:42:17.514Z,0.00
2019-03-18T05:43:17.544Z,0.00
2019-03-18T05:44:17.569Z,0.00
2019-03-18T05:45:17.595Z,0.00
2019-03-18T05:46:17.622Z,0.00
2019-03-18T05:47:17.650Z,0.00
2019-03-18T05:48:17.677Z,0.00
2019-03-18T05:49:17.705Z,0.00
2019-03-18T05:50:17.731Z,0.00
2019-03-18T05:51:17.755Z,0.00
2019-03-18T05:52:17.789Z,0.00
2019-03-18T05:53:17.811Z,0.00
2019-03-18T05:54:17.838Z,0.00
2019-03-18T05:55:17.896Z,0.00
2019-03-18T05:56:17.893Z,0.00
2019-03-18T05:57:17.921Z,0.00
2019-03-18T05:58:17.946Z,0.00
2019-03-18T05:59:17.972Z,0.00
2019-03-18T06:00:18.000Z,0.00
2019-03-18T06:01:18.026Z,0.00
2019-03-18T06:02:18.087Z,0.00
2019-03-18T06:03:18.081Z,0.00
2019-03-18T06:04:18.109Z,0.00
2019-03-18T06:05:18.191Z,0.00
2019-03-18T06:06:18.166Z,0.00
2019-03-18T06:07:18.192Z,0.00
2019-03-18T06:08:18.279Z,0.00
2019-03-18T06:09:18.246Z,0.00
2019-03-18T06:10:18.271Z,0.00
2019-03-18T06:11:18.298Z,0.00
2019-03-18T06:12:18.325Z,0.00
2019-03-18T06:13:18.355Z,0.00
2019-03-18T06:14:18.379Z,0.00
2019-03-18T06:15:18.406Z,0.00
2019-03-18T06:16:18.432Z,0.00
2019-03-18T06:17:18.460Z,5.63
2019-03-18T06:18:18.488Z,0.00
2019-03-18T06:19:18.515Z,0.00
2019-03-18T06:20:18.540Z,0.00
2019-03-18T06:21:18.567Z,0.00
2019-03-18T06:22:18.594Z,0.00
2019-03-18T06:23:18.622Z,5.63
2019-03-18T06:24:18.650Z,5.63
2019-03-18T06:25:18.679Z,5.63
2019-03-18T06:26:18.785Z,5.63
2019-03-18T06:27:18.734Z,5.63
2019-03-18T06:28:18.758Z,5.63
2019-03-18T06:29:18.785Z,5.63
2019-03-18T06:30:18.812Z,5.63
2019-03-18T06:31:18.845Z,5.63
2019-03-18T06:32:18.868Z,5.63
2019-03-18T06:33:18.894Z,5.63
2019-03-18T06:34:18.920Z,5.63
2019-03-18T06:35:20.495Z,5.63
2019-03-18T06:36:18.975Z,5.63
2019-03-18T06:37:19.069Z,5.63
2019-03-18T06:38:19.031Z,5.63
2019-03-18T06:39:19.057Z,5.63
2019-03-18T06:40:19.089Z,5.63
2019-03-18T06:41:19.110Z,5.63
2019-03-18T06:42:19.137Z,0.00
2019-03-18T06:43:19.165Z,0.00
2019-03-18T06:44:19.203Z,5.63
2019-03-18T06:45:19.220Z,0.00
2019-03-18T06:46:19.245Z,0.00
2019-03-18T06:47:19.275Z,0.00
2019-03-18T06:48:19.301Z,0.00
2019-03-18T06:49:19.332Z,0.00
2019-03-18T06:50:19.354Z,0.00
2019-03-18T06:51:19.384Z,0.00
2019-03-18T06:52:19.409Z,0.00
2019-03-18T06:53:19.436Z,0.00
2019-03-18T06:54:19.463Z,0.00
2019-03-18T06:55:19.490Z,0.00
2019-03-18T06:56:19.519Z,0.00
2019-03-18T06:57:19.545Z,0.00
2019-03-18T06:58:19.572Z,0.00
2019-03-18T06:59:19.602Z,0.00
2019-03-18T07:00:19.629Z,0.00
2019-03-18T07:01:19.656Z,0.00
2019-03-18T07:02:19.688Z,0.00
2019-03-18T07:03:19.711Z,0.00
2019-03-18T07:04:19.736Z,0.00
2019-03-18T07:05:19.767Z,5.63
2019-03-18T07:06:19.791Z,5.63
2019-03-18T07:07:19.818Z,5.63
2019-03-18T07:08:19.845Z,5.63
2019-03-18T07:09:19.872Z,5.63
2019-03-18T07:10:19.899Z,5.63
2019-03-18T07:11:19.927Z,5.63
2019-03-18T07:12:19.955Z,5.63
2019-03-18T07:13:19.981Z,11.25
2019-03-18T07:14:20.009Z,5.63
2019-03-18T07:15:20.036Z,5.63
2019-03-18T07:16:20.065Z,5.63
2019-03-18T07:17:20.090Z,5.63
2019-03-18T07:18:20.119Z,5.63
2019-03-18T07:19:20.147Z,5.63
2019-03-18T07:20:20.193Z,5.63
2019-03-18T07:21:20.201Z,5.63
2019-03-18T07:22:20.225Z,5.63
2019-03-18T07:23:20.254Z,5.63
2019-03-18T07:24:20.281Z,5.63
2019-03-18T07:25:20.309Z,5.63
2019-03-18T07:26:20.334Z,5.63
2019-03-18T07:27:20.368Z,5.63
2019-03-18T07:28:20.392Z,5.63
2019-03-18T07:29:20.416Z,5.63
2019-03-18T07:30:20.450Z,11.25
2019-03-18T07:31:20.471Z,11.25
2019-03-18T07:32:20.501Z,11.25
2019-03-18T07:33:20.529Z,11.25
2019-03-18T07:34:20.553Z,11.25
2019-03-18T07:35:20.582Z,11.25
2019-03-18T07:36:20.609Z,11.25
2019-03-18T07:37:20.639Z,11.25
2019-03-18T07:38:20.664Z,11.25
2019-03-18T07:39:20.760Z,11.25
2019-03-18T07:40:20.718Z,11.25
2019-03-18T07:41:20.750Z,11.25
2019-03-18T07:42:20.774Z,11.25
2019-03-18T07:43:20.800Z,11.25
2019-03-18T07:44:20.828Z,11.25
2019-03-18T07:45:20.855Z,11.25
2019-03-18T07:46:20.883Z,11.25
2019-03-18T07:47:20.911Z,16.88
2019-03-18T07:48:30.298Z,11.25
2019-03-18T07:49:20.966Z,11.25
2019-03-18T07:50:20.991Z,11.25
2019-03-18T07:51:21.020Z,11.25
2019-03-18T07:52:22.027Z,11.25
2019-03-18T07:53:21.075Z,11.25
2019-03-18T07:54:32.143Z,11.25
2019-03-18T07:55:21.143Z,11.25
2019-03-18T07:56:21.159Z,11.25
2019-03-18T07:57:21.185Z,11.25
2019-03-18T07:58:22.480Z,11.25
2019-03-18T07:59:21.241Z,11.25
2019-03-18T08:00:21.268Z,16.88
2019-03-18T08:01:21.298Z,11.25
2019-03-18T08:02:21.322Z,11.25
2019-03-18T08:03:21.353Z,11.25
2019-03-18T08:04:21.380Z,11.25
2019-03-18T08:05:21.406Z,16.88
2019-03-18T08:06:21.438Z,16.88
2019-03-18T08:07:21.461Z,22.50
2019-03-18T08:08:21.505Z,16.88
2019-03-18T08:09:21.538Z,16.88
2019-03-18T08:10:21.544Z,11.25
2019-03-18T08:11:21.571Z,16.88
2019-03-18T08:12:21.610Z,22.50
2019-03-18T08:13:21.641Z,22.50
2019-03-18T08:14:21.654Z,22.50
2019-03-18T08:15:21.681Z,28.13
2019-03-18T08:16:21.709Z,28.13
2019-03-18T08:17:21.736Z,28.13
2019-03-18T08:18:21.764Z,28.13
2019-03-18T08:19:21.859Z,33.75
2019-03-18T08:20:21.819Z,28.13
2019-03-18T08:21:21.851Z,33.75
2019-03-18T08:22:21.879Z,28.13
2019-03-18T08:23:21.902Z,28.13
2019-03-18T08:24:21.935Z,28.13
2019-03-18T08:25:21.955Z,28.13
2019-03-18T08:26:21.983Z,28.13
2019-03-18T08:27:22.012Z,28.13
2019-03-18T08:28:22.040Z,28.13
2019-03-18T08:29:22.068Z,28.13
2019-03-18T08:30:22.104Z,28.13
2019-03-18T08:31:22.123Z,39.38
2019-03-18T08:32:22.152Z,39.38
2019-03-18T08:33:22.176Z,28.13
2019-03-18T08:34:22.204Z,28.13
2019-03-18T08:35:22.233Z,28.13
2019-03-18T08:36:22.261Z,28.13
2019-03-18T08:37:22.287Z,39.38
2019-03-18T08:38:22.315Z,39.38
2019-03-18T08:39:22.343Z,39.38
2019-03-18T08:40:22.371Z,33.75
2019-03-18T08:41:22.399Z,28.13
2019-03-18T08:42:22.428Z,28.13
2019-03-18T08:43:22.455Z,28.13
2019-03-18T08:44:22.539Z,22.50
2019-03-18T08:45:22.510Z,22.50
2019-03-18T08:46:22.574Z,22.50
2019-03-18T08:47:22.565Z,16.88
2019-03-18T08:48:22.595Z,16.88
2019-03-18T08:49:22.659Z,16.88
2019-03-18T08:50:22.655Z,16.88
2019-03-18T08:51:22.726Z,16.88
2019-03-18T08:52:22.708Z,16.88
2019-03-18T08:53:22.734Z,11.25
2019-03-18T08:54:22.763Z,11.25
2019-03-18T08:55:22.790Z,11.25
2019-03-18T08:56:22.823Z,11.25
2019-03-18T08:57:22.843Z,11.25
2019-03-18T08:58:22.874Z,11.25
2019-03-18T08:59:22.902Z,11.25
2019-03-18T09:00:22.928Z,11.25
2019-03-18T09:01:22.966Z,11.25
2019-03-18T09:02:22.982Z,11.25
2019-03-18T09:03:23.017Z,11.25
2019-03-18T09:04:23.049Z,11.25
2019-03-18T09:05:23.068Z,11.25
2019-03-18T09:06:23.094Z,11.25
2019-03-18T09:07:23.162Z,11.25
2019-03-18T09:08:23.158Z,11.25
2019-03-18T09:09:23.177Z,5.63
2019-03-18T09:10:23.208Z,5.63
2019-03-18T09:11:23.237Z,5.63
2019-03-18T09:12:23.262Z,11.25
2019-03-18T09:13:23.289Z,11.25
2019-03-18T09:14:23.323Z,11.25
2019-03-18T09:15:23.359Z,11.25
2019-03-18T09:16:23.378Z,11.25
2019-03-18T09:17:23.402Z,11.25
2019-03-18T09:18:23.433Z,16.88
2019-03-18T09:19:23.459Z,16.88
2019-03-18T09:20:23.490Z,22.50
2019-03-18T09:21:23.515Z,16.88
2019-03-18T09:22:23.542Z,16.88
2019-03-18T09:23:23.570Z,11.25
2019-03-18T09:24:23.601Z,11.25
2019-03-18T09:25:23.625Z,16.88
2019-03-18T09:26:23.656Z,39.38
2019-03-18T09:27:23.684Z,61.88
2019-03-18T09:28:23.715Z,73.13
2019-03-18T09:29:23.737Z,78.75
2019-03-18T09:30:23.780Z,78.75
2019-03-18T09:31:23.835Z,73.13
2019-03-18T09:32:23.824Z,67.50
2019-03-18T09:33:23.851Z,78.75
2019-03-18T09:34:23.879Z,78.75
2019-03-18T09:35:24.091Z,78.75
2019-03-18T09:36:23.940Z,73.13
2019-03-18T09:37:23.963Z,73.13
2019-03-18T09:38:23.993Z,73.13
2019-03-18T09:39:24.021Z,61.88
2019-03-18T09:40:24.049Z,45.00
2019-03-18T09:41:24.097Z,39.38
2019-03-18T09:42:24.112Z,39.38
2019-03-18T09:43:24.134Z,33.75
2019-03-18T09:44:24.164Z,33.75
2019-03-18T09:45:24.192Z,33.75
2019-03-18T09:46:24.219Z,28.13
2019-03-18T09:47:24.249Z,16.88
2019-03-18T09:48:24.277Z,16.88
2019-03-18T09:49:24.305Z,11.25
2019-03-18T09:50:24.337Z,11.25
2019-03-18T09:51:24.364Z,5.63
2019-03-18T09:52:24.393Z,5.63
2019-03-18T09:53:24.421Z,5.63
2019-03-18T09:54:24.448Z,5.63
2019-03-18T09:55:24.478Z,5.63
2019-03-18T09:56:24.506Z,5.63
2019-03-18T09:57:26.202Z,5.63
2019-03-18T09:58:24.563Z,11.25
2019-03-18T09:59:24.595Z,11.25
2019-03-18T10:00:24.620Z,11.25
2019-03-18T10:01:24.648Z,11.25
2019-03-18T10:02:24.679Z,11.25
2019-03-18T10:03:24.705Z,11.25
2019-03-18T10:04:24.735Z,11.25
2019-03-18T10:05:24.777Z,11.25
2019-03-18T10:06:24.792Z,11.25
2019-03-18T10:07:24.820Z,11.25
2019-03-18T10:08:25.309Z,11.25
2019-03-18T10:09:24.876Z,11.25
2019-03-18T10:10:24.905Z,11.25
2019-03-18T10:11:24.934Z,11.25
2019-03-18T10:12:24.961Z,11.25
2019-03-18T10:13:24.991Z,11.25
2019-03-18T10:14:25.019Z,16.88
2019-03-18T10:15:25.046Z,22.50
2019-03-18T10:16:25.112Z,28.13
2019-03-18T10:17:25.109Z,28.13
2019-03-18T10:18:25.131Z,28.13
2019-03-18T10:19:33.496Z,22.50
2019-03-18T10:20:25.190Z,11.25
2019-03-18T10:21:25.216Z,11.25
2019-03-18T10:22:25.244Z,11.25
2019-03-18T10:23:25.272Z,11.25
2019-03-18T10:24:25.305Z,11.25
2019-03-18T10:25:25.329Z,11.25
2019-03-18T10:26:25.359Z,11.25
2019-03-18T10:27:25.390Z,11.25
2019-03-18T10:28:25.416Z,11.25
2019-03-18T10:29:25.463Z,11.25
2019-03-18T10:30:25.473Z,11.25
2019-03-18T10:31:25.501Z,22.50
2019-03-18T10:32:25.528Z,39.38
2019-03-18T10:33:25.557Z,61.88
2019-03-18T10:34:25.585Z,84.38
2019-03-18T10:35:25.614Z,118.13
2019-03-18T10:36:25.644Z,123.75
2019-03-18T10:37:25.670Z,118.13
2019-03-18T10:38:25.699Z,106.88
2019-03-18T10:39:25.733Z,95.63
2019-03-18T10:40:25.757Z,106.88
2019-03-18T10:41:25.784Z,90.00
2019-03-18T10:42:25.814Z,101.25
2019-03-18T10:43:25.843Z,67.50
2019-03-18T10:44:25.870Z,39.38
2019-03-18T10:45:26.238Z,33.75
2019-03-18T10:46:26.431Z,45.00
2019-03-18T10:47:25.957Z,45.00
2019-03-18T10:48:25.986Z,39.38
2019-03-18T10:49:26.017Z,33.75
2019-03-18T10:50:26.043Z,22.50
2019-03-18T10:51:26.076Z,22.50
2019-03-18T10:52:26.144Z,16.88
2019-03-18T10:53:26.133Z,16.88
2019-03-18T10:54:30.789Z,22.50
2019-03-18T10:55:26.190Z,28.13
2019-03-18T10:56:26.224Z,22.50
2019-03-18T10:57:26.249Z,22.50
2019-03-18T10:58:26.276Z,16.88
2019-03-18T10:59:26.305Z,16.88
2019-03-18T11:00:26.335Z,11.25
2019-03-18T11:01:26.363Z,11.25
2019-03-18T11:02:26.393Z,11.25
2019-03-18T11:03:26.422Z,11.25
2019-03-18T11:04:26.452Z,11.25
2019-03-18T11:05:26.481Z,11.25
2019-03-18T11:06:26.507Z,11.25
2019-03-18T11:07:26.536Z,11.25
2019-03-18T11:08:26.568Z,11.25
2019-03-18T11:09:26.595Z,11.25
2019-03-18T11:10:26.624Z,16.88
2019-03-18T11:11:26.654Z,22.50
2019-03-18T11:12:26.682Z,22.50
2019-03-18T11:13:26.712Z,28.13
2019-03-18T11:14:26.739Z,67.50
2019-03-18T11:15:26.768Z,56.25
2019-03-18T11:16:26.799Z,45.00
2019-03-18T11:17:26.827Z,45.00
2019-03-18T11:18:26.859Z,45.00
2019-03-18T11:19:26.889Z,33.75
2019-03-18T11:20:26.914Z,28.13
2019-03-18T11:21:26.978Z,45.00
2019-03-18T11:22:26.971Z,84.38
2019-03-18T11:23:27.000Z,90.00
2019-03-18T11:24:27.030Z,90.00
2019-03-18T11:25:27.057Z,84.38
2019-03-18T11:26:27.088Z,84.38
2019-03-18T11:27:27.148Z,84.38
2019-03-18T11:28:27.150Z,84.38
2019-03-18T11:29:27.176Z,84.38
2019-03-18T11:30:27.204Z,73.13
2019-03-18T11:31:27.233Z,90.00
2019-03-18T11:32:27.263Z,90.00
2019-03-18T11:33:28.562Z,95.63
2019-03-18T11:34:27.321Z,90.00
2019-03-18T11:35:27.350Z,90.00
2019-03-18T11:36:27.381Z,78.75
2019-03-18T11:37:27.409Z,84.38
2019-03-18T11:38:27.438Z,84.38
2019-03-18T11:39:27.473Z,84.38
2019-03-18T11:40:27.499Z,67.50
2019-03-18T11:41:27.528Z,50.63
2019-03-18T11:42:27.558Z,45.00
2019-03-18T11:43:27.588Z,45.00
2019-03-18T11:44:27.621Z,45.00
2019-03-18T11:45:27.646Z,50.63
2019-03-18T11:46:27.677Z,56.25
2019-03-18T11:47:27.706Z,78.75
2019-03-18T11:48:27.738Z,95.63
2019-03-18T11:49:39.179Z,78.75
2019-03-18T11:50:27.797Z,78.75
2019-03-18T11:51:27.830Z,73.13
2019-03-18T11:52:27.859Z,50.63
2019-03-18T11:53:27.895Z,39.38
2019-03-18T11:54:27.991Z,39.38
2019-03-18T11:55:27.947Z,50.63
2019-03-18T11:56:27.977Z,45.00
2019-03-18T11:57:28.007Z,50.63
2019-03-18T11:58:28.036Z,50.63
2019-03-18T11:59:28.070Z,50.63
2019-03-18T12:00:28.100Z,45.00
2019-03-18T12:01:28.129Z,61.88
2019-03-18T12:02:28.260Z,84.38
2019-03-18T12:03:28.192Z,84.38
2019-03-18T12:04:28.217Z,101.25
2019-03-18T12:05:28.247Z,101.25
2019-03-18T12:06:28.277Z,101.25
2019-03-18T12:07:28.311Z,95.63
2019-03-18T12:08:28.338Z,73.13
2019-03-18T12:09:28.367Z,45.00
2019-03-18T12:10:28.399Z,45.00
2019-03-18T12:11:28.430Z,45.00
2019-03-18T12:12:28.461Z,56.25
2019-03-18T12:13:28.489Z,78.75
2019-03-18T12:14:28.518Z,101.25
2019-03-18T12:15:28.553Z,112.50
2019-03-18T12:16:28.581Z,95.63
2019-03-18T12:17:28.696Z,78.75
2019-03-18T12:18:28.643Z,78.75
2019-03-18T12:19:28.672Z,101.25
2019-03-18T12:20:28.701Z,90.00
2019-03-18T12:21:28.731Z,73.13
2019-03-18T12:22:28.764Z,84.38
2019-03-18T12:23:28.795Z,90.00
2019-03-18T12:24:28.824Z,95.63
2019-03-18T12:25:28.856Z,78.75
2019-03-18T12:26:28.886Z,73.13
2019-03-18T12:27:28.916Z,73.13
2019-03-18T12:28:28.949Z,56.25
2019-03-18T12:29:28.978Z,45.00
2019-03-18T12:30:29.009Z,28.13
2019-03-18T12:31:29.049Z,16.88
2019-03-18T12:32:29.071Z,5.63
2019-03-18T12:33:29.105Z,5.63
2019-03-18T12:34:29.152Z,5.63
2019-03-18T12:35:29.163Z,5.63
2019-03-18T12:36:29.199Z,5.63
2019-03-18T12:37:29.229Z,5.63
2019-03-18T12:38:29.258Z,5.63
2019-03-18T12:39:29.288Z,5.63
2019-03-18T12:40:29.319Z,5.63
2019-03-18T12:41:29.350Z,16.88
2019-03-18T12:42:29.388Z,39.38
2019-03-18T12:43:29.412Z,61.88
2019-03-18T12:44:29.443Z,73.13
2019-03-18T12:45:29.577Z,73.13
2019-03-18T12:46:29.504Z,67.50
2019-03-18T12:47:29.540Z,67.50
2019-03-18T12:48:29.570Z,61.88
2019-03-18T12:49:29.650Z,67.50
2019-03-18T12:50:49.127Z,84.38
2019-03-18T12:51:29.657Z,56.25
2019-03-18T12:52:29.690Z,45.00
2019-03-18T12:53:29.718Z,28.13
2019-03-18T12:54:29.751Z,16.88
2019-03-18T12:55:29.780Z,11.25
2019-03-18T12:56:29.813Z,11.25
2019-03-18T12:57:29.842Z,16.88
2019-03-18T12:58:29.873Z,28.13
2019-03-18T12:59:29.903Z,50.63
2019-03-18T13:00:29.935Z,78.75
2019-03-18T13:01:30.227Z,78.75
2019-03-18T13:02:29.995Z,84.38
2019-03-18T13:03:30.026Z,78.75
2019-03-18T13:04:30.058Z,78.75
2019-03-18T13:05:30.089Z,73.13
2019-03-18T13:06:33.311Z,73.13
2019-03-18T13:07:30.154Z,73.13
2019-03-18T13:08:30.181Z,67.50
2019-03-18T13:09:30.210Z,67.50
2019-03-18T13:10:30.246Z,67.50
2019-03-18T13:11:30.273Z,67.50
2019-03-18T13:12:30.362Z,67.50
2019-03-18T13:13:30.334Z,67.50
2019-03-18T13:14:30.369Z,67.50
2019-03-18T13:15:30.402Z,67.50
2019-03-18T13:16:30.428Z,67.50
2019-03-18T13:17:30.457Z,67.50
2019-03-18T13:18:30.559Z,73.13
2019-03-18T13:19:30.528Z,73.13
2019-03-18T13:20:30.667Z,73.13
2019-03-18T13:21:30.934Z,73.13
2019-03-18T13:22:30.626Z,78.75
2019-03-18T13:23:30.703Z,78.75
2019-03-18T13:24:30.675Z,84.38
2019-03-18T13:25:30.707Z,84.38
2019-03-18T13:26:30.738Z,73.13
2019-03-18T13:27:30.769Z,90.00
2019-03-18T13:28:30.827Z,73.13
2019-03-18T13:29:30.903Z,67.50